createdAt,value
2019-05-12T00:02:17.875Z,6.22
2019-05-12T00:05:05.429Z,6.19
2019-05-12T00:18:20.269Z,6.37
2019-05-12T00:21:08.774Z,6.39
2019-05-12T00:23:54.804Z,6.39
2019-05-12T00:26:41.223Z,6.43
2019-05-12T00:29:28.742Z,6.43
2019-05-12T00:34:48.209Z,6.58
2019-05-12T00:37:34.609Z,6.68
2019-05-12T00:40:21.046Z,6.67
2019-05-12T00:43:08.777Z,6.68
2019-05-12T00:45:55.455Z,6.66
2019-05-12T00:48:42.319Z,6.67
2019-05-12T00:51:29.033Z,6.67
2019-05-12T00:54:17.701Z,6.73
2019-05-12T00:57:03.520Z,6.73
2019-05-12T00:59:49.940Z,6.81
2019-05-12T01:02:37.989Z,6.86
2019-05-12T01:07:58.744Z,6.94
2019-05-12T01:13:31.627Z,7.03
2019-05-12T01:19:04.541Z,7.12
2019-05-12T01:21:32.150Z,7.12
2019-05-12T01:24:03.581Z,7.17
2019-05-12T01:26:31.281Z,7.29
2019-05-12T01:28:58.917Z,7.29
2019-05-12T01:31:28.971Z,7.34
2019-05-12T01:33:58.596Z,7.34
2019-05-12T01:36:28.624Z,7.34
2019-05-12T01:39:15.174Z,7.37
2019-05-12T01:42:01.621Z,7.38
2019-05-12T01:44:48.244Z,7.38
2019-05-12T01:47:38.191Z,7.32
2019-05-12T01:50:08.783Z,7.32
2019-05-12T01:52:35.838Z,7.31
2019-05-12T01:58:08.916Z,7.35
2019-05-12T02:03:29.390Z,7.36
2019-05-12T02:08:50.450Z,7.37
2019-05-12T02:11:37.991Z,7.40
2019-05-12T02:16:58.241Z,7.47
2019-05-12T02:19:48.006Z,7.49
2019-05-12T02:22:16.074Z,7.49
2019-05-12T02:25:02.525Z,7.54
2019-05-12T02:27:48.964Z,7.56
2019-05-12T02:30:19.215Z,7.56
2019-05-12T02:32:53.076Z,7.59
2019-05-12T02:35:16.241Z,7.64
2019-05-12T02:37:45.348Z,7.64
2019-05-12T02:40:15.094Z,7.64
2019-05-12T02:42:46.255Z,7.62
2019-05-12T02:45:35.135Z,7.61
2019-05-12T02:48:01.297Z,7.59
2019-05-12T02:50:29.023Z,7.59
2019-05-12T02:52:56.594Z,7.57
2019-05-12T02:55:45.073Z,7.55
2019-05-12T02:58:15.312Z,7.55
2019-05-12T03:00:45.560Z,7.53
2019-05-12T03:03:31.232Z,7.51
2019-05-12T03:05:58.994Z,7.51
2019-05-12T03:08:26.635Z,7.49
2019-05-12T03:11:14.769Z,7.45
2019-05-12T03:13:44.830Z,7.45
2019-05-12T03:16:14.700Z,7.45
2019-05-12T03:18:41.036Z,7.46
2019-05-12T03:21:27.482Z,7.47
2019-05-12T03:23:55.370Z,7.49
2019-05-12T03:26:24.958Z,7.49
2019-05-12T03:29:14.521Z,7.49
2019-05-12T03:31:59.743Z,7.49
2019-05-12T03:34:47.635Z,7.48
2019-05-12T03:37:17.719Z,7.48
2019-05-12T03:42:17.491Z,7.45
2019-05-12T03:44:56.735Z,7.45
2019-05-12T03:47:35.553Z,7.38
2019-05-12T03:50:24.386Z,7.31
2019-05-12T03:53:25.719Z,7.31
2019-05-12T03:55:42.353Z,7.25
2019-05-12T03:58:09.345Z,7.18
2019-05-12T04:00:56.048Z,7.07
2019-05-12T04:03:45.112Z,7.05
2019-05-12T04:06:15.117Z,7.05
2019-05-12T04:08:54.987Z,7.06
2019-05-12T04:11:29.362Z,7.10
2019-05-12T04:13:57.137Z,7.10
2019-05-12T04:16:27.604Z,7.11
2019-05-12T04:19:14.767Z,7.20
2019-05-12T04:21:44.627Z,7.20
2019-05-12T04:24:14.298Z,7.26
2019-05-12T04:27:01.107Z,7.31
2019-05-12T04:29:28.833Z,7.31
2019-05-12T04:31:58.220Z,7.38
2019-05-12T04:34:44.847Z,7.38
2019-05-12T04:37:14.885Z,7.42
2019-05-12T04:39:44.708Z,7.42
2019-05-12T04:42:14.710Z,7.41
2019-05-12T04:44:41.198Z,7.41
2019-05-12T04:47:08.983Z,7.40
2019-05-12T04:49:55.378Z,7.47
2019-05-12T04:52:24.862Z,7.47
2019-05-12T04:54:55.200Z,7.47
2019-05-12T04:57:21.736Z,7.47
2019-05-12T05:00:08.091Z,7.48
2019-05-12T05:02:54.573Z,7.55
2019-05-12T05:05:24.856Z,7.55
2019-05-12T05:07:54.837Z,7.65
2019-05-12T05:10:24.913Z,7.73
2019-05-12T05:12:54.347Z,7.83
2019-05-12T05:15:40.848Z,7.90
2019-05-12T05:21:14.117Z,8.05
2019-05-12T05:23:44.296Z,8.05
2019-05-12T05:26:24.355Z,8.09
2019-05-12T05:29:04.481Z,8.19
2019-05-12T05:31:53.398Z,8.23
2019-05-12T05:36:59.478Z,8.28
2019-05-12T05:39:24.345Z,8.33
2019-05-12T05:42:13.517Z,8.38
2019-05-12T05:47:14.078Z,8.58
2019-05-12T05:50:00.501Z,8.98
2019-05-12T05:52:33.450Z,8.98
2019-05-12T05:54:57.447Z,9.20
2019-05-12T05:57:28.522Z,9.33
2019-05-12T06:00:21.726Z,9.43
2019-05-12T06:02:44.146Z,9.47
2019-05-12T06:05:31.077Z,9.52
2019-05-12T06:08:00.116Z,9.63
2019-05-12T06:10:35.245Z,9.74
2019-05-12T06:12:57.929Z,9.80
2019-05-12T06:15:29.748Z,9.92
2019-05-12T06:17:57.299Z,10.04
2019-05-12T06:20:43.917Z,10.13
2019-05-12T06:23:14.791Z,10.13
2019-05-12T06:26:03.952Z,10.31
2019-05-12T06:31:29.633Z,10.71
2019-05-12T06:37:05.045Z,10.89
2019-05-12T06:39:28.459Z,10.99
2019-05-12T06:42:17.036Z,10.95
2019-05-12T06:44:48.812Z,10.95
2019-05-12T06:47:34.393Z,10.85
2019-05-12T06:50:20.357Z,11.01
2019-05-12T06:53:06.762Z,11.01
2019-05-12T06:55:54.092Z,11.39
2019-05-12T06:58:27.551Z,11.62
2019-05-12T07:01:16.689Z,11.82
2019-05-12T07:04:00.551Z,11.82
2019-05-12T07:06:28.447Z,12.08
2019-05-12T07:09:24.197Z,12.35
2019-05-12T07:12:06.976Z,12.45
2019-05-12T07:14:55.641Z,12.50
2019-05-12T07:20:29.343Z,12.40
2019-05-12T07:22:56.919Z,12.40
2019-05-12T07:25:44.504Z,12.58
2019-05-12T07:28:14.391Z,12.77
2019-05-12T07:30:44.099Z,12.79
2019-05-12T07:33:14.336Z,12.93
2019-05-12T07:35:44.666Z,12.93
2019-05-12T07:38:20.555Z,12.99
2019-05-12T07:40:41.501Z,12.89
2019-05-12T07:43:16.239Z,12.89
2019-05-12T07:45:38.731Z,12.77
2019-05-12T07:48:10.179Z,12.65
2019-05-12T07:50:37.171Z,12.30
2019-05-12T07:53:13.779Z,12.30
2019-05-12T07:55:47.570Z,12.21
2019-05-12T07:58:29.265Z,12.21
2019-05-12T08:01:02.459Z,12.42
2019-05-12T08:03:44.983Z,12.50
2019-05-12T08:06:14.209Z,12.50
2019-05-12T08:09:00.832Z,12.87
2019-05-12T08:14:27.661Z,13.29
2019-05-12T08:17:12.185Z,13.22
2019-05-12T08:19:56.792Z,13.22
2019-05-12T08:25:18.908Z,12.70
2019-05-12T08:30:52.065Z,12.56
2019-05-12T08:33:34.671Z,12.48
2019-05-12T08:36:24.253Z,12.48
2019-05-12T08:38:53.659Z,12.77
2019-05-12T08:41:40.068Z,13.23
2019-05-12T08:44:09.355Z,13.23
2019-05-12T08:49:51.134Z,12.79
2019-05-12T08:52:36.289Z,12.79
2019-05-12T08:54:59.896Z,12.72
2019-05-12T08:57:49.344Z,12.78
2019-05-12T09:00:15.553Z,12.88
2019-05-12T09:03:03.556Z,13.33
2019-05-12T09:08:55.202Z,13.74
2019-05-12T09:11:24.287Z,14.07
2019-05-12T09:14:10.919Z,14.18
2019-05-12T09:16:38.642Z,14.30
2019-05-12T09:19:27.243Z,14.67
2019-05-12T09:22:16.844Z,14.70
2019-05-12T09:25:06.341Z,14.70
2019-05-12T09:27:30.947Z,14.53
2019-05-12T09:30:17.363Z,14.18
2019-05-12T09:35:39.210Z,13.73
2019-05-12T09:41:20.431Z,13.78
2019-05-12T09:43:50.278Z,13.78
2019-05-12T09:46:37.467Z,15.03
2019-05-12T09:52:05.011Z,15.98
2019-05-12T09:54:35.532Z,15.98
2019-05-12T09:57:04.406Z,16.16
2019-05-12T09:59:33.609Z,16.38
2019-05-12T10:05:06.627Z,16.32
2019-05-12T10:07:34.615Z,16.92
2019-05-12T10:10:03.684Z,16.92
2019-05-12T10:12:38.644Z,16.64
2019-05-12T10:15:04.317Z,16.77
2019-05-12T10:17:33.991Z,16.86
2019-05-12T10:20:01.321Z,16.46
2019-05-12T10:22:47.262Z,15.92
2019-05-12T10:25:14.910Z,16.35
2019-05-12T10:27:45.726Z,18.16
2019-05-12T10:30:17.104Z,18.16
2019-05-12T10:32:43.669Z,19.00
2019-05-12T10:35:20.529Z,19.35
2019-05-12T10:37:44.400Z,19.15
2019-05-12T10:40:13.996Z,18.69
2019-05-12T10:42:46.003Z,17.47
2019-05-12T10:45:18.969Z,17.47
2019-05-12T10:47:40.595Z,16.85
2019-05-12T10:50:08.674Z,17.47
2019-05-12T10:52:38.924Z,17.47
2019-05-12T10:55:05.596Z,19.56
2019-05-12T10:57:33.910Z,19.56
2019-05-12T11:00:03.972Z,20.35
2019-05-12T11:02:30.760Z,21.22
2019-05-12T11:04:58.710Z,21.77
2019-05-12T11:07:28.127Z,21.33
2019-05-12T11:10:13.565Z,20.13
2019-05-12T11:12:33.365Z,19.09
2019-05-12T11:15:08.532Z,18.17
2019-05-12T11:17:54.136Z,18.50
2019-05-12T11:20:21.950Z,19.55
2019-05-12T11:22:54.219Z,20.90
2019-05-12T11:25:21.698Z,21.15
2019-05-12T11:27:49.306Z,19.84
2019-05-12T11:30:18.965Z,19.84
2019-05-12T11:32:46.576Z,18.47
2019-05-12T11:35:14.407Z,18.47
2019-05-12T11:37:42.192Z,18.84
2019-05-12T11:40:09.898Z,18.84
2019-05-12T11:42:37.567Z,19.37
2019-05-12T11:45:05.622Z,20.42
2019-05-12T11:47:34.630Z,21.17
2019-05-12T11:50:09.781Z,20.88
2019-05-12T11:52:34.237Z,19.65
2019-05-12T11:55:01.836Z,19.43
2019-05-12T11:57:31.134Z,19.43
2019-05-12T12:00:01.988Z,20.22
2019-05-12T12:02:30.364Z,21.31
2019-05-12T12:04:58.094Z,22.46
2019-05-12T12:07:26.091Z,23.28
2019-05-12T12:09:56.128Z,23.76
2019-05-12T12:12:49.109Z,23.50
2019-05-12T12:14:54.037Z,22.42
2019-05-12T12:17:22.829Z,21.15
2019-05-12T12:19:50.799Z,20.93
2019-05-12T12:22:20.489Z,21.03
2019-05-12T12:24:48.053Z,20.42
2019-05-12T12:27:15.704Z,19.63
2019-05-12T12:29:44.039Z,18.98
2019-05-12T12:32:20.268Z,18.08
2019-05-12T12:34:45.722Z,18.08
2019-05-12T12:37:24.119Z,18.11
2019-05-12T12:39:50.394Z,18.51
2019-05-12T12:42:21.085Z,18.51
2019-05-12T12:44:53.497Z,19.03
2019-05-12T12:47:18.473Z,19.69
2019-05-12T12:49:49.272Z,21.62
2019-05-12T12:52:15.781Z,21.62
2019-05-12T12:54:45.665Z,21.27
2019-05-12T12:57:13.819Z,19.70
2019-05-12T12:59:45.375Z,19.70
2019-05-12T13:02:11.235Z,19.17
2019-05-12T13:04:39.717Z,18.71
2019-05-12T13:07:08.392Z,18.69
2019-05-12T13:09:38.450Z,20.08
2019-05-12T13:12:14.188Z,21.49
2019-05-12T13:14:44.219Z,22.68
2019-05-12T13:17:11.005Z,23.80
2019-05-12T13:19:38.709Z,23.80
2019-05-12T13:22:14.989Z,24.80
2019-05-12T13:24:38.736Z,25.83
2019-05-12T13:27:06.464Z,25.83
2019-05-12T13:29:39.527Z,24.16
2019-05-12T13:32:03.601Z,24.16
2019-05-12T13:34:34.751Z,22.88
2019-05-12T13:37:00.860Z,23.73
2019-05-12T13:39:28.409Z,23.73
2019-05-12T13:42:00.104Z,23.89
2019-05-12T13:44:30.274Z,22.89
2019-05-12T13:47:00.114Z,21.88
2019-05-12T13:49:36.199Z,22.93
2019-05-12T13:52:04.079Z,24.06
2019-05-12T13:54:30.473Z,24.06
2019-05-12T13:57:03.726Z,23.91
2019-05-12T13:59:30.352Z,22.94
2019-05-12T14:01:58.426Z,21.90
2019-05-12T14:04:27.708Z,21.97
2019-05-12T14:06:55.338Z,22.54
2019-05-12T14:09:23.874Z,20.91
2019-05-12T14:11:53.714Z,20.91
2019-05-12T14:14:20.753Z,20.02
2019-05-12T14:16:57.040Z,19.36
2019-05-12T14:19:23.417Z,19.26
2019-05-12T14:21:57.499Z,20.52
2019-05-12T14:24:25.061Z,20.52
2019-05-12T14:26:59.734Z,20.00
2019-05-12T14:29:30.497Z,19.42
2019-05-12T14:32:02.404Z,18.42
2019-05-12T14:34:26.794Z,18.42
2019-05-12T14:37:05.562Z,18.13
2019-05-12T14:39:31.139Z,18.02
2019-05-12T14:41:59.183Z,18.13
2019-05-12T14:44:28.140Z,18.18
2019-05-12T14:47:05.205Z,18.61
2019-05-12T14:49:33.358Z,19.11
2019-05-12T14:52:03.261Z,19.81
2019-05-12T14:54:30.607Z,20.52
2019-05-12T14:57:03.384Z,20.84
2019-05-12T14:59:36.596Z,20.84
2019-05-12T15:02:03.132Z,22.28
2019-05-12T15:04:30.039Z,22.28
2019-05-12T15:06:59.782Z,23.42
2019-05-12T15:09:31.161Z,24.46
2019-05-12T15:11:59.062Z,25.41
2019-05-12T15:14:32.487Z,26.05
2019-05-12T15:17:00.080Z,26.23
2019-05-12T15:19:29.812Z,26.04
2019-05-12T15:22:01.561Z,24.75
2019-05-12T15:24:28.654Z,24.45
2019-05-12T15:27:00.466Z,23.53
2019-05-12T15:29:26.106Z,23.53
2019-05-12T15:31:56.704Z,22.45
2019-05-12T15:34:23.801Z,21.46
2019-05-12T15:36:56.000Z,20.16
2019-05-12T15:39:21.132Z,19.59
2019-05-12T15:41:51.097Z,19.04
2019-05-12T15:44:24.863Z,19.04
2019-05-12T15:46:49.421Z,18.54
2019-05-12T15:49:18.017Z,18.07
2019-05-12T15:51:54.259Z,17.52
2019-05-12T15:54:19.881Z,17.52
2019-05-12T15:56:47.463Z,17.35
2019-05-12T15:59:17.438Z,17.08
2019-05-12T16:01:44.648Z,16.98
2019-05-12T16:04:15.510Z,16.98
2019-05-12T16:06:52.896Z,16.74
2019-05-12T16:09:14.130Z,16.74
2019-05-12T16:11:52.075Z,16.64
2019-05-12T16:14:19.610Z,16.57
2019-05-12T16:16:50.106Z,17.11
2019-05-12T16:19:26.567Z,19.78
2019-05-12T16:21:54.153Z,19.78
2019-05-12T16:24:23.637Z,20.78
2019-05-12T16:26:56.717Z,21.99
2019-05-12T16:29:45.435Z,22.34
2019-05-12T16:32:47.519Z,22.34
2019-05-12T16:35:06.884Z,22.44
2019-05-12T16:37:50.453Z,21.47
2019-05-12T16:40:51.319Z,20.42
2019-05-12T16:43:29.235Z,19.30
2019-05-12T16:46:15.419Z,17.73
2019-05-12T16:49:03.344Z,17.73
2019-05-12T16:51:43.739Z,17.42
2019-05-12T16:54:19.543Z,17.14
2019-05-12T16:57:29.189Z,17.14
2019-05-12T17:00:02.482Z,16.99
2019-05-12T17:03:05.831Z,16.85
2019-05-12T17:05:45.069Z,16.72
2019-05-12T17:08:00.312Z,16.53
2019-05-12T17:10:58.323Z,16.20
2019-05-12T17:13:16.195Z,16.20
2019-05-12T17:16:04.451Z,15.88
2019-05-12T17:21:25.457Z,15.68
2019-05-12T17:23:53.165Z,15.51
2019-05-12T17:26:41.163Z,15.36
2019-05-12T17:29:08.870Z,15.21
2019-05-12T17:31:36.660Z,14.94
2019-05-12T17:44:46.612Z,14.57
2019-05-12T17:50:19.468Z,14.44
2019-05-12T17:58:47.363Z,14.34
2019-05-12T18:01:14.330Z,14.28
2019-05-12T18:04:04.324Z,14.28
2019-05-12T18:06:34.080Z,14.09
2019-05-12T18:09:20.328Z,14.09
2019-05-12T18:14:46.754Z,13.87
2019-05-12T18:17:09.359Z,13.87
2019-05-12T18:19:36.980Z,13.82
2019-05-12T18:22:23.635Z,13.70
2019-05-12T18:25:11.411Z,13.62
2019-05-12T18:27:57.768Z,13.53
2019-05-12T18:33:29.593Z,13.39
2019-05-12T18:36:06.017Z,13.10
2019-05-12T18:38:56.226Z,12.97
2019-05-12T18:44:31.096Z,12.73
2019-05-12T18:46:57.071Z,12.73
2019-05-12T18:49:24.818Z,12.66
2019-05-12T18:52:11.289Z,12.58
2019-05-12T18:54:57.141Z,12.51
2019-05-12T18:57:44.927Z,12.42
2019-05-12T19:00:01.518Z,12.32
2019-05-12T19:02:46.225Z,12.14
2019-05-12T19:05:21.961Z,12.14
2019-05-12T19:10:51.633Z,11.95
2019-05-12T19:13:19.016Z,11.95
2019-05-12T19:16:07.316Z,11.82
2019-05-12T19:18:37.319Z,11.82
2019-05-12T19:21:23.647Z,11.74
2019-05-12T19:24:17.480Z,11.58
2019-05-12T19:27:18.968Z,11.49
2019-05-12T19:32:36.849Z,11.41
2019-05-12T19:35:20.299Z,11.33
2019-05-12T19:37:53.821Z,11.21
2019-05-12T19:43:28.152Z,11.19
2019-05-12T19:46:14.589Z,11.23
2019-05-12T19:50:07.220Z,11.23
2019-05-12T19:54:38.322Z,11.36
2019-05-12T19:57:26.409Z,11.38
2019-05-12T20:00:25.351Z,11.38
2019-05-12T20:05:35.212Z,11.39
2019-05-12T20:11:03.618Z,11.35
2019-05-12T20:13:50.064Z,11.27
2019-05-12T20:16:36.515Z,11.27
2019-05-12T20:22:13.805Z,11.16
2019-05-12T20:24:41.331Z,11.08
2019-05-12T20:27:27.712Z,11.01
2019-05-12T20:32:47.481Z,10.89
2019-05-12T20:35:33.918Z,10.76
2019-05-12T20:38:25.392Z,10.68
2019-05-12T20:43:55.006Z,10.62
2019-05-12T20:46:15.466Z,10.57
2019-05-12T20:49:01.066Z,10.47
2019-05-12T20:51:27.791Z,10.43
2019-05-12T20:54:18.090Z,10.37
2019-05-12T20:56:43.574Z,10.37
2019-05-12T20:59:34.213Z,10.30
2019-05-12T21:02:03.636Z,10.26
2019-05-12T21:05:00.537Z,10.16
2019-05-12T21:07:22.148Z,10.09
2019-05-12T21:09:49.337Z,10.02
2019-05-12T21:12:40.090Z,9.95
2019-05-12T21:15:55.174Z,9.80
2019-05-12T21:18:15.811Z,9.80
2019-05-12T21:21:03.538Z,9.64
2019-05-12T21:23:53.869Z,9.64
2019-05-12T21:26:19.962Z,9.54
2019-05-12T21:29:06.325Z,9.38
2019-05-12T21:31:53.156Z,9.27
2019-05-12T21:34:57.812Z,9.27
2019-05-12T21:37:10.399Z,9.20
2019-05-12T21:39:56.850Z,9.11
2019-05-12T21:42:44.639Z,8.94
2019-05-12T21:45:31.396Z,8.94
2019-05-12T21:48:23.531Z,8.78
2019-05-12T21:51:09.773Z,8.78
2019-05-12T21:53:56.189Z,8.72
2019-05-12T21:56:44.892Z,8.59
2019-05-12T21:59:13.391Z,8.59
2019-05-12T22:01:43.184Z,8.51
2019-05-12T22:04:10.374Z,8.46
2019-05-12T22:06:57.458Z,8.39
2019-05-12T22:09:47.052Z,8.38
2019-05-12T22:15:21.442Z,8.35
2019-05-12T22:18:07.861Z,8.33
2019-05-12T22:23:11.843Z,8.28
2019-05-12T22:25:43.553Z,8.23
2019-05-12T22:28:13.258Z,8.09
2019-05-12T22:30:40.758Z,8.09
2019-05-12T22:33:27.187Z,7.98
2019-05-12T22:36:26.830Z,7.98
2019-05-12T22:41:41.933Z,7.87
2019-05-12T22:44:28.378Z,7.84
2019-05-12T22:46:55.991Z,7.84
2019-05-12T22:49:44.256Z,7.75
2019-05-12T22:52:13.646Z,7.75
2019-05-12T22:57:39.935Z,7.62
2019-05-12T23:02:45.683Z,7.58
2019-05-12T23:05:32.381Z,7.54
2019-05-12T23:08:21.560Z,7.56
2019-05-12T23:11:07.981Z,7.61
2019-05-12T23:13:40.889Z,7.61
2019-05-12T23:19:01.434Z,7.62
2019-05-12T23:21:49.285Z,7.62
2019-05-12T23:24:39.210Z,7.59
2019-05-12T23:27:25.227Z,7.59
2019-05-12T23:29:53.256Z,7.55
2019-05-12T23:34:58.713Z,7.43
2019-05-12T23:37:45.244Z,7.26
2019-05-12T23:40:34.260Z,7.19
2019-05-12T23:43:19.970Z,7.13
2019-05-12T23:51:16.985Z,7.04
2019-05-12T23:54:03.928Z,7.02
2019-05-12T23:59:20.271Z,6.84
